createdAt,value
2022-11-25T00:01:33.999Z,1.22
2022-11-25T00:04:02.276Z,1.27
2022-11-25T00:06:33.270Z,1.34
2022-11-25T00:09:07.165Z,1.39
2022-11-25T00:11:37.496Z,1.34
2022-11-25T00:14:06.715Z,1.34
2022-11-25T00:16:35.403Z,1.31
2022-11-25T00:19:03.722Z,1.34
2022-11-25T00:21:33.965Z,1.37
2022-11-25T00:24:05.353Z,1.47
2022-11-25T00:26:35.968Z,1.57
2022-11-25T00:29:07.686Z,1.65
2022-11-25T00:31:39.150Z,1.68
2022-11-25T00:34:07.942Z,1.73
2022-11-25T00:36:37.876Z,1.76
2022-11-25T00:39:14.640Z,1.76
2022-11-25T00:42:03.183Z,1.75
2022-11-25T00:44:41.991Z,1.80
2022-11-25T00:47:18.825Z,1.86
2022-11-25T00:49:52.236Z,1.87
2022-11-25T00:52:23.418Z,1.88
2022-11-25T00:54:52.510Z,1.89
2022-11-25T00:57:22.729Z,1.85
2022-11-25T00:59:50.810Z,1.61
2022-11-25T01:02:23.229Z,1.46
2022-11-25T01:04:51.343Z,1.34
2022-11-25T01:07:19.598Z,1.26
2022-11-25T01:09:48.218Z,1.19
2022-11-25T01:12:16.176Z,1.13
2022-11-25T01:14:44.156Z,1.07
2022-11-25T01:17:16.122Z,1.01
2022-11-25T01:19:44.090Z,0.94
2022-11-25T01:22:12.163Z,0.87
2022-11-25T01:24:40.126Z,0.87
2022-11-25T01:27:08.301Z,0.92
2022-11-25T01:29:36.155Z,0.95
2022-11-25T01:32:04.214Z,0.98
2022-11-25T01:34:34.808Z,1.01
2022-11-25T01:37:03.070Z,1.03
2022-11-25T01:39:33.093Z,1.06
2022-11-25T01:42:02.572Z,1.03
2022-11-25T01:44:33.205Z,1.01
2022-11-25T01:47:23.686Z,0.96
2022-11-25T01:50:05.230Z,0.91
2022-11-25T01:52:38.182Z,0.81
2022-11-25T01:55:15.978Z,0.76
2022-11-25T01:57:48.893Z,0.71
2022-11-25T02:00:17.488Z,0.71
2022-11-25T02:02:47.765Z,0.73
2022-11-25T02:05:23.122Z,0.78
2022-11-25T02:07:54.265Z,0.85
2022-11-25T02:10:32.787Z,0.91
2022-11-25T02:13:00.953Z,0.99
2022-11-25T02:15:31.586Z,1.04
2022-11-25T02:17:59.505Z,1.04
2022-11-25T02:20:28.730Z,1.03
2022-11-25T02:23:25.928Z,1.01
2022-11-25T02:25:55.530Z,1.02
2022-11-25T02:28:29.869Z,1.01
2022-11-25T02:30:59.155Z,0.98
2022-11-25T02:33:28.030Z,1.02
2022-11-25T02:36:00.302Z,1.07
2022-11-25T02:38:39.638Z,1.06
2022-11-25T02:41:16.619Z,1.11
2022-11-25T02:43:47.354Z,1.18
2022-11-25T02:46:22.279Z,1.22
2022-11-25T02:49:08.518Z,1.24
2022-11-25T02:51:40.342Z,1.27
2022-11-25T02:54:11.239Z,1.28
2022-11-25T02:56:40.343Z,1.30
2022-11-25T02:59:09.983Z,1.31
2022-11-25T03:01:39.106Z,1.28
2022-11-25T03:04:08.805Z,1.25
2022-11-25T03:06:37.171Z,1.20
2022-11-25T03:09:05.243Z,1.18
2022-11-25T03:11:52.469Z,1.17
2022-11-25T03:14:21.155Z,1.13
2022-11-25T03:16:49.548Z,1.11
2022-11-25T03:19:17.812Z,1.11
2022-11-25T03:21:45.779Z,1.13
2022-11-25T03:24:13.745Z,1.16
2022-11-25T03:26:41.824Z,1.19
2022-11-25T03:29:10.095Z,1.23
2022-11-25T03:31:39.017Z,1.23
2022-11-25T03:34:09.643Z,1.14
2022-11-25T03:36:38.051Z,1.02
2022-11-25T03:39:06.996Z,0.89
2022-11-25T03:41:35.162Z,0.81
2022-11-25T03:44:03.547Z,0.78
2022-11-25T03:46:31.994Z,0.83
2022-11-25T03:49:01.646Z,0.84
2022-11-25T03:51:30.123Z,0.87
2022-11-25T03:53:59.539Z,0.85
2022-11-25T03:56:27.903Z,0.88
2022-11-25T03:58:56.085Z,0.92
2022-11-25T04:01:24.492Z,0.88
2022-11-25T04:03:52.865Z,0.88
2022-11-25T04:06:24.006Z,0.92
2022-11-25T04:08:52.874Z,0.88
2022-11-25T04:11:21.804Z,0.90
2022-11-25T04:13:51.679Z,0.89
2022-11-25T04:16:25.174Z,0.86
2022-11-25T04:18:54.280Z,0.80
2022-11-25T04:21:22.552Z,0.77
2022-11-25T04:23:50.623Z,0.81
2022-11-25T04:26:19.624Z,0.80
2022-11-25T04:28:47.796Z,0.73
2022-11-25T04:31:15.703Z,0.64
2022-11-25T04:33:48.376Z,0.65
2022-11-25T04:36:19.796Z,0.65
2022-11-25T04:38:47.971Z,0.64
2022-11-25T04:41:16.594Z,0.69
2022-11-25T04:43:46.676Z,0.72
2022-11-25T04:46:17.883Z,0.63
2022-11-25T04:48:49.164Z,0.63
2022-11-25T04:51:17.746Z,0.61
2022-11-25T04:53:46.102Z,0.62
2022-11-25T04:56:19.288Z,0.73
2022-11-25T04:59:06.851Z,0.77
2022-11-25T05:01:37.201Z,0.76
2022-11-25T05:04:13.130Z,0.83
2022-11-25T05:06:41.311Z,0.85
2022-11-25T05:09:11.228Z,0.89
2022-11-25T05:11:40.215Z,0.93
2022-11-25T05:14:08.620Z,0.94
2022-11-25T05:16:36.755Z,0.94
2022-11-25T05:19:10.062Z,0.92
2022-11-25T05:21:38.134Z,0.88
2022-11-25T05:24:06.411Z,0.87
2022-11-25T05:26:34.792Z,0.94
2022-11-25T05:29:03.791Z,1.01
2022-11-25T05:31:32.473Z,1.07
2022-11-25T05:34:02.292Z,1.12
2022-11-25T05:36:32.308Z,1.16
2022-11-25T05:39:00.891Z,1.19
2022-11-25T05:41:38.351Z,1.20
2022-11-25T05:44:06.467Z,1.18
2022-11-25T05:46:34.999Z,1.20
2022-11-25T05:49:03.624Z,1.19
2022-11-25T05:51:32.255Z,1.21
2022-11-25T05:54:01.301Z,1.19
2022-11-25T05:56:30.405Z,1.21
2022-11-25T05:59:02.368Z,1.19
2022-11-25T06:01:42.011Z,1.18
2022-11-25T06:04:10.392Z,1.16
2022-11-25T06:06:38.405Z,1.21
2022-11-25T06:09:06.324Z,1.20
2022-11-25T06:11:35.011Z,1.15
2022-11-25T06:14:03.185Z,1.17
2022-11-25T06:16:31.410Z,1.13
2022-11-25T06:19:25.396Z,1.10
2022-11-25T06:21:53.316Z,1.16
2022-11-25T06:24:21.299Z,1.19
2022-11-25T06:26:52.843Z,1.15
2022-11-25T06:29:21.115Z,1.19
2022-11-25T06:31:50.660Z,1.19
2022-11-25T06:34:51.047Z,1.19
2022-11-25T06:37:38.062Z,1.29
2022-11-25T06:40:07.837Z,1.34
2022-11-25T06:42:38.203Z,1.41
2022-11-25T06:45:07.206Z,1.44
2022-11-25T06:47:35.169Z,1.47
2022-11-25T06:50:03.343Z,1.49
2022-11-25T06:52:32.035Z,1.43
2022-11-25T06:55:00.102Z,1.23
2022-11-25T06:57:28.274Z,1.21
2022-11-25T06:59:56.353Z,1.19
2022-11-25T07:02:24.564Z,1.17
2022-11-25T07:04:52.593Z,1.11
2022-11-25T07:07:20.787Z,1.07
2022-11-25T07:09:49.049Z,1.00
2022-11-25T07:12:17.023Z,1.05
2022-11-25T07:14:45.087Z,1.05
2022-11-25T07:17:13.272Z,1.02
2022-11-25T07:19:41.443Z,1.00
2022-11-25T07:22:09.303Z,1.01
2022-11-25T07:24:37.903Z,1.05
2022-11-25T07:27:07.330Z,1.12
2022-11-25T07:32:26.375Z,1.28
2022-11-25T07:34:54.397Z,1.36
2022-11-25T07:37:22.204Z,1.39
2022-11-25T07:39:50.086Z,1.44
2022-11-25T07:42:18.259Z,1.43
2022-11-25T07:44:46.436Z,1.36
2022-11-25T07:47:36.423Z,1.42
2022-11-25T07:50:04.722Z,1.55
2022-11-25T07:52:32.767Z,1.57
2022-11-25T07:55:00.632Z,1.45
2022-11-25T07:57:29.153Z,1.42
2022-11-25T07:59:57.400Z,1.45
2022-11-25T08:02:25.295Z,1.47
2022-11-25T08:04:53.535Z,1.49
2022-11-25T08:07:21.450Z,1.58
2022-11-25T08:09:51.630Z,1.64
2022-11-25T08:12:19.583Z,1.71
2022-11-25T08:14:47.873Z,1.81
2022-11-25T08:17:16.046Z,1.88
2022-11-25T08:19:44.324Z,1.86
2022-11-25T08:22:12.605Z,1.90
2022-11-25T08:24:41.081Z,1.98
2022-11-25T08:27:09.365Z,2.10
2022-11-25T08:29:37.507Z,2.16
2022-11-25T08:32:11.767Z,2.24
2022-11-25T08:34:40.541Z,2.23
2022-11-25T08:37:10.771Z,2.25
2022-11-25T08:39:54.867Z,2.31
2022-11-25T08:42:23.419Z,2.27
2022-11-25T08:44:53.961Z,2.28
2022-11-25T08:47:23.345Z,2.31
2022-11-25T08:49:53.285Z,2.44
2022-11-25T08:52:22.965Z,2.48
2022-11-25T08:54:50.928Z,2.49
2022-11-25T08:57:18.802Z,2.57
2022-11-25T08:59:46.756Z,2.57
2022-11-25T09:02:18.011Z,2.51
2022-11-25T09:04:46.080Z,2.55
2022-11-25T09:07:14.096Z,2.51
2022-11-25T09:09:42.638Z,2.56
2022-11-25T09:12:10.911Z,2.61
2022-11-25T09:14:40.586Z,2.64
2022-11-25T09:17:12.843Z,2.68
2022-11-25T09:19:41.483Z,2.63
2022-11-25T09:22:09.470Z,2.62
2022-11-25T09:24:37.440Z,2.67
2022-11-25T09:27:05.246Z,2.75
2022-11-25T09:29:33.466Z,2.80
2022-11-25T09:32:02.057Z,2.81
2022-11-25T09:34:30.222Z,2.74
2022-11-25T09:36:58.083Z,2.77
2022-11-25T09:39:29.937Z,2.80
2022-11-25T09:42:26.137Z,2.80
2022-11-25T09:45:40.334Z,2.82
2022-11-25T09:48:12.600Z,2.95
2022-11-25T09:51:06.715Z,3.03
2022-11-25T09:53:54.752Z,3.10
2022-11-25T09:56:36.298Z,3.18
2022-11-25T09:59:21.879Z,3.25
2022-11-25T10:02:11.577Z,3.36
2022-11-25T10:04:46.816Z,3.45
2022-11-25T10:07:23.088Z,3.49
2022-11-25T10:09:52.593Z,3.46
2022-11-25T10:12:29.465Z,3.48
2022-11-25T10:15:03.099Z,3.43
2022-11-25T10:17:34.210Z,3.45
2022-11-25T10:20:20.069Z,3.54
2022-11-25T10:22:50.442Z,3.63
2022-11-25T10:25:27.023Z,3.60
2022-11-25T10:28:04.499Z,3.63
2022-11-25T10:30:57.629Z,3.72
2022-11-25T10:33:32.757Z,3.66
2022-11-25T10:36:10.888Z,3.71
2022-11-25T10:39:03.922Z,3.78
2022-11-25T10:41:37.459Z,3.89
2022-11-25T10:44:14.439Z,4.01
2022-11-25T10:47:13.567Z,4.06
2022-11-25T10:50:01.839Z,4.15
2022-11-25T10:52:36.198Z,4.25
2022-11-25T10:55:17.959Z,4.35
2022-11-25T10:57:46.281Z,4.46
2022-11-25T11:00:31.171Z,4.49
2022-11-25T11:03:12.876Z,4.51
2022-11-25T11:05:47.467Z,4.47
2022-11-25T11:08:19.312Z,4.49
2022-11-25T11:11:08.489Z,4.49
2022-11-25T11:13:36.358Z,4.48
2022-11-25T11:16:04.969Z,4.49
2022-11-25T11:18:36.188Z,4.46
2022-11-25T11:21:07.330Z,4.51
2022-11-25T11:23:50.908Z,4.50
2022-11-25T11:26:28.763Z,4.55
2022-11-25T11:29:03.215Z,4.53
2022-11-25T11:31:58.411Z,4.42
2022-11-25T11:35:05.678Z,4.34
2022-11-25T11:37:40.206Z,4.40
2022-11-25T11:40:41.157Z,4.44
2022-11-25T11:43:22.946Z,4.50
2022-11-25T11:46:23.059Z,4.47
2022-11-25T11:48:59.923Z,4.47
2022-11-25T11:52:03.916Z,4.51
2022-11-25T11:54:36.969Z,4.57
2022-11-25T11:57:10.981Z,4.50
2022-11-25T12:00:01.357Z,4.43
2022-11-25T12:02:41.353Z,4.35
2022-11-25T12:05:09.591Z,4.27
2022-11-25T12:07:56.336Z,4.23
2022-11-25T12:10:27.212Z,4.28
2022-11-25T12:13:27.535Z,4.36
2022-11-25T12:16:21.765Z,4.50
2022-11-25T12:19:22.105Z,4.61
2022-11-25T12:22:03.383Z,4.69
2022-11-25T12:24:37.291Z,4.72
2022-11-25T12:27:10.872Z,4.70
2022-11-25T12:29:38.773Z,4.65
2022-11-25T12:32:21.790Z,4.64
2022-11-25T12:35:20.915Z,4.58
2022-11-25T12:38:15.481Z,4.56
2022-11-25T12:41:02.026Z,4.55
2022-11-25T12:43:59.262Z,4.56
2022-11-25T12:46:30.089Z,4.56
2022-11-25T12:48:59.624Z,4.52
2022-11-25T12:52:10.659Z,4.53
2022-11-25T12:54:56.669Z,4.53
2022-11-25T12:57:47.511Z,4.59
2022-11-25T13:00:43.566Z,4.63
2022-11-25T13:03:49.426Z,4.64
2022-11-25T13:06:41.974Z,4.64
2022-11-25T13:09:36.319Z,4.66
2022-11-25T13:12:46.746Z,4.60
2022-11-25T13:15:18.397Z,4.55
2022-11-25T13:17:49.844Z,4.47
2022-11-25T13:20:23.994Z,4.43
2022-11-25T13:23:08.665Z,4.48
2022-11-25T13:25:39.874Z,4.49
2022-11-25T13:28:31.287Z,4.56
2022-11-25T13:31:14.413Z,4.52
2022-11-25T13:33:45.248Z,4.48
2022-11-25T13:36:45.587Z,4.43
2022-11-25T13:39:37.531Z,4.36
2022-11-25T13:42:19.633Z,4.34
2022-11-25T13:44:56.151Z,4.32
2022-11-25T13:47:41.348Z,4.27
2022-11-25T13:50:18.988Z,4.24
2022-11-25T13:53:03.191Z,4.21
2022-11-25T13:55:34.748Z,4.21
2022-11-25T13:58:12.269Z,4.19
2022-11-25T14:00:59.022Z,4.17
2022-11-25T14:03:30.062Z,4.19
2022-11-25T14:06:13.604Z,4.21
2022-11-25T14:09:19.039Z,4.19
2022-11-25T14:12:01.482Z,4.15
2022-11-25T14:14:52.261Z,4.14
2022-11-25T14:17:59.790Z,4.19
2022-11-25T14:20:43.332Z,4.21
2022-11-25T14:23:37.101Z,4.24
2022-11-25T14:26:26.680Z,4.28
2022-11-25T14:29:31.902Z,4.27
2022-11-25T14:32:07.748Z,4.27
2022-11-25T14:34:46.185Z,4.27
2022-11-25T14:37:22.913Z,4.22
2022-11-25T14:40:00.053Z,4.24
2022-11-25T14:42:34.453Z,4.28
2022-11-25T14:45:03.389Z,4.30
2022-11-25T14:47:39.244Z,4.29
2022-11-25T14:53:09.672Z,4.31
2022-11-25T14:55:38.121Z,4.36
2022-11-25T14:58:06.295Z,4.40
2022-11-25T15:00:34.170Z,4.41
2022-11-25T15:03:06.846Z,4.42
2022-11-25T15:05:39.664Z,4.39
2022-11-25T15:08:15.253Z,4.34
2022-11-25T15:11:00.112Z,4.31
2022-11-25T15:13:41.079Z,4.28
2022-11-25T15:16:18.661Z,4.25
2022-11-25T15:18:56.974Z,4.28
2022-11-25T15:21:30.709Z,4.34
2022-11-25T15:23:59.200Z,4.34
2022-11-25T15:26:30.531Z,4.34
2022-11-25T15:29:21.102Z,4.36
2022-11-25T15:31:52.550Z,4.30
2022-11-25T15:34:23.807Z,4.27
2022-11-25T15:36:54.422Z,4.36
2022-11-25T15:39:26.170Z,4.34
2022-11-25T15:42:16.754Z,4.27
2022-11-25T15:44:50.190Z,4.19
2022-11-25T15:47:27.358Z,4.14
2022-11-25T15:50:22.865Z,4.16
2022-11-25T15:52:54.740Z,4.15
2022-11-25T15:55:34.366Z,4.17
2022-11-25T15:58:17.638Z,4.17
2022-11-25T16:01:06.089Z,4.16
2022-11-25T16:03:35.610Z,4.26
2022-11-25T16:06:20.924Z,4.25
2022-11-25T16:08:55.156Z,4.27
2022-11-25T16:11:25.637Z,4.27
2022-11-25T16:13:53.964Z,4.27
2022-11-25T16:16:31.406Z,4.28
2022-11-25T16:19:02.178Z,4.25
2022-11-25T16:21:41.867Z,4.22
2022-11-25T16:24:23.899Z,4.20
2022-11-25T16:26:58.500Z,4.21
2022-11-25T16:29:47.929Z,4.19
2022-11-25T16:32:19.463Z,4.13
2022-11-25T16:34:47.562Z,4.06
2022-11-25T16:37:15.850Z,4.06
2022-11-25T16:39:43.903Z,4.04
2022-11-25T16:42:21.930Z,4.03
2022-11-25T16:44:52.547Z,3.95
2022-11-25T16:47:22.788Z,3.90
2022-11-25T16:49:50.644Z,3.92
2022-11-25T16:52:19.070Z,3.90
2022-11-25T16:54:47.602Z,3.87
2022-11-25T16:57:19.078Z,3.83
2022-11-25T16:59:52.127Z,3.87
2022-11-25T17:02:24.226Z,3.89
2022-11-25T17:04:52.550Z,3.89
2022-11-25T17:07:36.067Z,3.92
2022-11-25T17:10:04.601Z,3.94
2022-11-25T17:12:35.382Z,3.90
2022-11-25T17:15:06.497Z,3.77
2022-11-25T17:17:35.107Z,3.75
2022-11-25T17:20:04.168Z,3.77
2022-11-25T17:22:37.792Z,3.71
2022-11-25T17:25:08.167Z,3.68
2022-11-25T17:27:36.207Z,3.66
2022-11-25T17:30:07.506Z,3.62
2022-11-25T17:32:35.925Z,3.60
2022-11-25T17:35:04.681Z,3.61
2022-11-25T17:37:33.163Z,3.65
2022-11-25T17:40:01.009Z,3.60
2022-11-25T17:42:32.082Z,3.61
2022-11-25T17:45:00.764Z,3.59
2022-11-25T17:47:29.138Z,3.58
2022-11-25T17:49:57.962Z,3.57
2022-11-25T17:52:26.202Z,3.53
2022-11-25T17:54:54.341Z,3.47
2022-11-25T17:57:22.799Z,3.45
2022-11-25T17:59:50.805Z,3.43
2022-11-25T18:02:22.365Z,3.41
2022-11-25T18:04:50.963Z,3.41
2022-11-25T18:07:19.206Z,3.36
2022-11-25T18:09:47.632Z,3.38
2022-11-25T18:12:36.713Z,3.39
2022-11-25T18:15:10.633Z,3.41
2022-11-25T18:17:39.320Z,3.46
2022-11-25T18:20:19.713Z,3.56
2022-11-25T18:22:49.122Z,3.58
2022-11-25T18:25:20.245Z,3.52
2022-11-25T18:27:49.707Z,3.52
2022-11-25T18:30:24.265Z,3.52
2022-11-25T18:32:52.807Z,3.54
2022-11-25T18:35:24.662Z,3.53
2022-11-25T18:37:53.246Z,3.52
2022-11-25T18:40:21.421Z,3.48
2022-11-25T18:42:55.023Z,3.51
2022-11-25T18:45:27.548Z,3.57
2022-11-25T18:47:55.693Z,3.57
2022-11-25T18:50:26.201Z,3.60
2022-11-25T18:52:54.852Z,3.61
2022-11-25T18:55:24.401Z,3.60
2022-11-25T18:57:52.657Z,3.60
2022-11-25T19:00:32.589Z,3.59
2022-11-25T19:03:01.523Z,3.56
2022-11-25T19:05:32.543Z,3.53
2022-11-25T19:08:01.323Z,3.50
2022-11-25T19:10:33.292Z,3.47
2022-11-25T19:13:06.511Z,3.38
2022-11-25T19:15:37.355Z,3.32
2022-11-25T19:18:06.959Z,3.36
2022-11-25T19:20:34.898Z,3.40
2022-11-25T19:23:16.615Z,3.43
2022-11-25T19:25:45.705Z,3.47
2022-11-25T19:28:15.204Z,3.49
2022-11-25T19:30:44.305Z,3.49
2022-11-25T19:33:26.381Z,3.51
2022-11-25T19:35:54.281Z,3.51
2022-11-25T19:38:26.179Z,3.52
2022-11-25T19:40:56.158Z,3.55
2022-11-25T19:43:27.241Z,3.63
2022-11-25T19:45:57.461Z,3.64
2022-11-25T19:48:29.634Z,3.63
2022-11-25T19:51:02.421Z,3.63
2022-11-25T19:53:34.137Z,3.62
2022-11-25T19:56:04.741Z,3.65
2022-11-25T19:58:33.030Z,3.69
2022-11-25T20:01:04.258Z,3.67
2022-11-25T20:03:32.570Z,3.66
2022-11-25T20:06:00.534Z,3.68
2022-11-25T20:08:29.321Z,3.72
2022-11-25T20:10:58.217Z,3.67
2022-11-25T20:13:26.403Z,3.66
2022-11-25T20:15:56.000Z,3.67
2022-11-25T20:18:26.334Z,3.67
2022-11-25T20:21:03.432Z,3.66
2022-11-25T20:23:40.040Z,3.66
2022-11-25T20:26:26.859Z,3.64
2022-11-25T20:28:54.771Z,3.61
2022-11-25T20:31:27.339Z,3.55
2022-11-25T20:33:58.187Z,3.54
2022-11-25T20:36:31.370Z,3.55
2022-11-25T20:39:01.425Z,3.58
2022-11-25T20:41:30.476Z,3.60
2022-11-25T20:43:59.711Z,3.62
2022-11-25T20:46:30.515Z,3.67
2022-11-25T20:49:01.853Z,3.68
2022-11-25T20:51:29.843Z,3.69
2022-11-25T20:54:05.320Z,3.69
2022-11-25T20:56:34.515Z,3.71
2022-11-25T20:59:02.554Z,3.72
2022-11-25T21:01:30.798Z,3.69
2022-11-25T21:03:58.899Z,3.69
2022-11-25T21:06:30.063Z,3.71
2022-11-25T21:09:01.446Z,3.72
2022-11-25T21:11:33.111Z,3.71
2022-11-25T21:14:01.150Z,3.66
2022-11-25T21:16:29.294Z,3.61
2022-11-25T21:18:57.365Z,3.58
2022-11-25T21:21:38.685Z,3.54
2022-11-25T21:24:28.453Z,3.54
2022-11-25T21:26:59.646Z,3.55
2022-11-25T21:29:28.978Z,3.57
2022-11-25T21:31:57.092Z,3.57
2022-11-25T21:34:25.007Z,3.56
2022-11-25T21:36:54.330Z,3.59
2022-11-25T21:39:30.256Z,3.67
2022-11-25T21:42:02.467Z,3.74
2022-11-25T21:44:35.299Z,3.74
2022-11-25T21:47:16.106Z,3.76
2022-11-25T21:49:44.786Z,3.80
2022-11-25T21:52:13.285Z,3.81
2022-11-25T21:54:41.759Z,3.78
2022-11-25T21:57:29.017Z,3.77
2022-11-25T21:59:57.051Z,3.75
2022-11-25T22:02:25.338Z,3.77
2022-11-25T22:04:54.790Z,3.73
2022-11-25T22:07:26.434Z,3.67
2022-11-25T22:09:58.657Z,3.68
2022-11-25T22:12:29.601Z,3.70
2022-11-25T22:14:59.567Z,3.72
2022-11-25T22:17:29.533Z,3.71
2022-11-25T22:19:57.707Z,3.73
2022-11-25T22:22:25.776Z,3.70
2022-11-25T22:24:53.556Z,3.70
2022-11-25T22:27:25.092Z,3.74
2022-11-25T22:29:54.604Z,3.74
2022-11-25T22:32:22.626Z,3.68
2022-11-25T22:34:50.481Z,3.62
2022-11-25T22:37:21.546Z,3.58
2022-11-25T22:39:49.855Z,3.56
2022-11-25T22:42:27.380Z,3.55
2022-11-25T22:44:57.701Z,3.55
2022-11-25T22:47:40.865Z,3.55
2022-11-25T22:50:20.646Z,3.55
2022-11-25T22:52:49.295Z,3.54
2022-11-25T22:55:23.378Z,3.54
2022-11-25T22:57:56.645Z,3.57
2022-11-25T23:00:26.093Z,3.55
2022-11-25T23:02:56.885Z,3.52
2022-11-25T23:05:30.719Z,3.50
2022-11-25T23:08:05.831Z,3.48
2022-11-25T23:10:33.695Z,3.48
2022-11-25T23:13:01.765Z,3.49
2022-11-25T23:15:30.150Z,3.50
2022-11-25T23:18:00.139Z,3.51
2022-11-25T23:20:34.295Z,3.54
2022-11-25T23:23:12.232Z,3.54
2022-11-25T23:25:40.155Z,3.53
2022-11-25T23:28:08.220Z,3.56
2022-11-25T23:30:37.016Z,3.56
2022-11-25T23:33:14.805Z,3.56
2022-11-25T23:35:42.989Z,3.58
2022-11-25T23:38:18.321Z,3.59
2022-11-25T23:40:46.203Z,3.57
2022-11-25T23:43:15.905Z,3.59
2022-11-25T23:45:52.838Z,3.64
2022-11-25T23:48:24.408Z,3.71
2022-11-25T23:50:55.478Z,3.75
2022-11-25T23:53:30.250Z,3.79
2022-11-25T23:55:58.595Z,3.75
2022-11-25T23:58:26.561Z,3.75
